Time;durP1;ratioP1;P1;durP2;ratioP2;P2;SDS_P1;SDS_P2;PMS_P1;PMS_P2;Temp;Humidity;BMP_temperature;BMP_pressure;BME280_temperature;BME280_humidity;BME280_pressure;Samples;Min_cycle;Max_cycle;Signal;HPM_P1;HPM_P2
2021/01/02 00:08:19;;;;;;;35.47;14.95;;;1.70;99.90;;;;;;20896200;28;20651;-77
2021/01/02 00:18:23;;;;;;;;;;;1.70;99.90;;;;;;20897916;28;20037;-76
2021/01/02 00:28:28;;;;;;;36.78;15.07;;;1.70;99.90;;;;;;20896359;28;19916;-77
2021/01/02 00:38:29;;;;;;;51.22;20.67;;;1.80;99.90;;;;;;20894866;28;20041;-81
2021/01/02 00:48:31;;;;;;;;;;;1.90;99.90;;;;;;20861214;28;20041;-79
2021/01/02 00:58:44;;;;;;;35.10;15.40;;;1.90;99.90;;;;;;20883101;28;20291;-77
2021/01/02 01:08:53;;;;;;;31.55;14.73;;;1.80;99.90;;;;;;20882460;28;20141;-76
2021/01/02 01:19:04;;;;;;;38.42;14.45;;;1.80;99.90;;;;;;20945496;28;20074;-75
2021/01/02 01:29:05;;;;;;;32.37;14.13;;;1.80;99.90;;;;;;20937707;28;20032;-75
2021/01/02 01:39:06;;;;;;;36.65;15.07;;;1.90;99.90;;;;;;20912741;28;20029;-76
2021/01/02 01:49:09;;;;;;;29.58;13.38;;;1.80;99.90;;;;;;20908130;28;20504;-75
2021/01/02 01:59:20;;;;;;;31.15;13.98;;;1.70;99.90;;;;;;20910813;28;20033;-76
2021/01/02 02:09:22;;;;;;;26.73;11.33;;;1.60;99.90;;;;;;20923758;28;20029;-77
2021/01/02 02:19:53;;;;;;;28.92;12.75;;;1.70;99.90;;;;;;20909770;28;20029;-77
2021/01/02 02:30:15;;;;;;;28.63;14.00;;;1.80;99.90;;;;;;20927618;28;20031;-77
2021/01/02 02:40:17;;;;;;;;;;;1.70;99.90;;;;;;20926733;28;20100;-77
2021/01/02 02:50:23;;;;;;;28.63;13.23;;;1.50;99.90;;;;;;20927132;28;19923;-77
2021/01/02 03:00:24;;;;;;;34.17;14.20;;;1.70;99.90;;;;;;20920291;28;20115;-77
2021/01/02 03:10:25;;;;;;;27.25;12.63;;;1.80;99.90;;;;;;20922140;28;20067;-77
2021/01/02 03:20:25;;;;;;;36.53;14.25;;;1.80;99.90;;;;;;20934111;28;20024;-77
2021/01/02 03:30:27;;;;;;;30.67;13.15;;;1.60;99.90;;;;;;20924791;28;20096;-77
2021/01/02 03:40:28;;;;;;;33.58;14.50;;;1.70;99.90;;;;;;20926991;28;20033;-77
2021/01/02 03:50:28;;;;;;;37.03;14.15;;;1.70;99.90;;;;;;20934023;28;20400;-77
2021/01/02 04:00:29;;;;;;;31.47;13.57;;;1.80;99.90;;;;;;20922019;28;20021;-77
2021/01/02 04:10:30;;;;;;;;;;;1.70;99.90;;;;;;20917453;28;20049;-77
2021/01/02 04:20:31;;;;;;;30.13;12.17;;;1.70;99.90;;;;;;20923788;28;19916;-77
2021/01/02 04:30:32;;;;;;;30.13;14.20;;;1.70;99.90;;;;;;20922895;28;20283;-77
2021/01/02 04:40:33;;;;;;;25.98;12.15;;;1.60;99.90;;;;;;20920521;28;20510;-77
2021/01/02 04:50:34;;;;;;;;;;;1.50;99.90;;;;;;20918379;28;20029;-77
2021/01/02 05:00:38;;;;;;;30.48;13.02;;;1.60;99.90;;;;;;20915846;28;19908;-77
2021/01/02 05:10:38;;;;;;;29.80;13.57;;;1.60;99.90;;;;;;20913866;28;20044;-77
2021/01/02 05:20:39;;;;;;;29.45;12.98;;;1.60;99.90;;;;;;20893262;28;20032;-77
2021/01/02 05:30:40;;;;;;;27.27;13.65;;;1.70;99.90;;;;;;20909387;28;20037;-77
2021/01/02 05:40:44;;;;;;;32.88;14.88;;;1.70;99.90;;;;;;20910752;28;20025;-77
2021/01/02 05:50:47;;;;;;;33.00;13.65;;;1.70;99.90;;;;;;20909919;28;20029;-76
2021/01/02 06:00:47;;;;;;;41.95;16.10;;;1.50;99.90;;;;;;20891536;28;20033;-76
2021/01/02 06:10:48;;;;;;;;;;;1.50;99.90;;;;;;20915935;28;20079;-77
2021/01/02 06:20:49;;;;;;;32.72;14.43;;;1.60;99.90;;;;;;20901444;28;19915;-77
2021/01/02 06:30:50;;;;;;;;;;;1.50;99.90;;;;;;20890817;28;20033;-76
2021/01/02 06:40:57;;;;;;;32.58;14.68;;;1.50;99.90;;;;;;20908348;28;20375;-76
2021/01/02 06:51:00;;;;;;;33.40;14.93;;;1.50;99.90;;;;;;20914309;28;20044;-77
2021/01/02 07:01:06;;;;;;;33.83;14.90;;;1.60;99.90;;;;;;20922284;28;20289;-77
2021/01/02 07:11:33;;;;;;;25.23;12.82;;;1.60;99.90;;;;;;20922386;28;20081;-76
2021/01/02 07:21:38;;;;;;;22.30;10.93;;;1.60;99.90;;;;;;20921448;28;20033;-76
2021/01/02 07:31:39;;;;;;;22.80;11.27;;;1.70;99.90;;;;;;20920067;28;20458;-76
2021/01/02 07:41:40;;;;;;;;;;;1.80;99.90;;;;;;20919976;28;20028;-76
2021/01/02 07:51:45;;;;;;;22.92;10.10;;;1.80;99.90;;;;;;20919319;28;20007;-76
2021/01/02 08:01:57;;;;;;;24.77;11.57;;;1.90;99.90;;;;;;20916012;28;20040;-75
2021/01/02 08:12:02;;;;;;;;;;;1.90;99.90;;;;;;20915463;28;20339;-75
2021/01/02 08:22:05;;;;;;;25.02;10.93;;;2.00;99.90;;;;;;20924749;28;20299;-75
2021/01/02 08:32:10;;;;;;;20.50;10.55;;;2.10;99.90;;;;;;20913442;28;20065;-74
2021/01/02 08:42:11;;;;;;;20.77;8.20;;;2.00;99.90;;;;;;20914791;28;20094;-74
2021/01/02 08:52:20;;;;;;;15.35;7.28;;;2.10;99.90;;;;;;20915398;28;20116;-75
2021/01/02 09:02:21;;;;;;;15.02;7.50;;;2.10;99.90;;;;;;20910403;28;20036;-77
2021/01/02 09:12:21;;;;;;;12.65;6.63;;;2.20;99.90;;;;;;20910299;28;20508;-76
2021/01/02 09:22:25;;;;;;;22.90;9.77;;;2.30;99.90;;;;;;20893760;28;20087;-76
2021/01/02 09:32:26;;;;;;;14.90;7.38;;;2.30;99.90;;;;;;20909662;28;20851;-76
2021/01/02 09:42:26;;;;;;;13.18;5.60;;;2.30;99.90;;;;;;20909266;28;20033;-76
2021/01/02 09:52:27;;;;;;;11.52;5.68;;;2.40;99.90;;;;;;20908376;28;20500;-76
2021/01/02 10:02:30;;;;;;;13.00;6.40;;;2.40;99.90;;;;;;20908757;28;20400;-76
2021/01/02 10:12:31;;;;;;;11.23;6.03;;;2.50;99.90;;;;;;20908786;28;20033;-76
2021/01/02 10:22:32;;;;;;;12.50;5.30;;;2.50;99.90;;;;;;20918811;28;20049;-76
2021/01/02 10:32:33;;;;;;;11.40;5.30;;;2.60;99.90;;;;;;20918832;28;20035;-76
2021/01/02 10:42:35;;;;;;;8.43;4.45;;;2.60;99.90;;;;;;20934646;28;20065;-77
2021/01/02 10:52:36;;;;;;;13.50;5.93;;;2.70;99.90;;;;;;20904790;28;20391;-77
2021/01/02 11:02:36;;;;;;;9.82;5.57;;;2.80;99.90;;;;;;20902931;28;20090;-77
2021/01/02 11:12:37;;;;;;;11.73;5.57;;;2.80;99.90;;;;;;20920660;28;20109;-78
2021/01/02 11:22:40;;;;;;;11.67;6.03;;;2.80;99.90;;;;;;20919426;28;20314;-76
2021/01/02 11:32:41;;;;;;;10.10;5.45;;;2.70;99.90;;;;;;20918824;28;20108;-76
2021/01/02 11:42:41;;;;;;;12.05;5.68;;;2.70;99.90;;;;;;20916156;28;20037;-77
2021/01/02 11:52:42;;;;;;;6.77;4.17;;;2.60;99.90;;;;;;20915631;28;20439;-76
2021/01/02 12:02:43;;;;;;;10.18;5.00;;;2.60;99.90;;;;;;20915636;28;20635;-77
2021/01/02 12:12:44;;;;;;;11.88;6.00;;;2.60;99.90;;;;;;20896839;28;20518;-77
2021/01/02 12:22:45;;;;;;;;;;;2.60;99.90;;;;;;20914979;28;20035;-77
2021/01/02 12:32:45;;;;;;;10.03;5.40;;;2.50;99.90;;;;;;20914866;28;19912;-76
2021/01/02 12:42:46;;;;;;;7.78;4.40;;;2.50;99.90;;;;;;20914759;28;20331;-76
2021/01/02 12:52:47;;;;;;;8.73;4.43;;;2.50;99.90;;;;;;20907916;28;20141;-79
2021/01/02 13:02:48;;;;;;;7.65;3.83;;;2.50;99.90;;;;;;20916541;28;20175;-78
2021/01/02 13:12:49;;;;;;;6.68;3.63;;;2.40;99.90;;;;;;20905813;28;20044;-77
2021/01/02 13:22:50;;;;;;;6.25;3.45;;;2.40;99.90;;;;;;20895903;28;20028;-76
2021/01/02 13:32:50;;;;;;;;;;;2.40;99.90;;;;;;20893203;28;20025;-77
2021/01/02 13:42:51;;;;;;;6.83;3.57;;;2.40;99.90;;;;;;20896900;28;20359;-77
2021/01/02 13:52:52;;;;;;;7.95;4.05;;;2.40;99.90;;;;;;20868157;28;20376;-78
2021/01/02 14:02:53;;;;;;;7.00;3.40;;;2.30;99.90;;;;;;20924895;28;20040;-77
2021/01/02 14:12:54;;;;;;;5.70;3.47;;;2.30;99.90;;;;;;20952060;28;20037;-77
2021/01/02 14:22:55;;;;;;;6.65;4.03;;;2.30;99.90;;;;;;20952297;28;20283;-77
2021/01/02 14:32:55;;;;;;;;;;;2.20;99.90;;;;;;20913974;28;20515;-76
2021/01/02 14:42:56;;;;;;;7.05;4.38;;;2.20;99.90;;;;;;20904623;28;19909;-77
2021/01/02 14:53:56;;;;;;;7.75;4.53;;;2.10;99.90;;;;;;21215015;27;20726;-77
2021/01/02 15:03:56;;;;;;;8.52;5.00;;;2.10;99.90;;;;;;21126296;28;20090;-77
2021/01/02 15:13:58;;;;;;;;;;;2.10;99.90;;;;;;21136744;28;20028;-77
2021/01/02 15:23:59;;;;;;;7.57;4.40;;;2.10;99.90;;;;;;21134277;28;19965;-77
2021/01/02 15:34:00;;;;;;;9.45;4.25;;;2.10;99.90;;;;;;21126196;28;20044;-77
2021/01/02 15:44:01;;;;;;;;;;;2.10;99.90;;;;;;21128793;28;20027;-77
2021/01/02 15:54:02;;;;;;;8.57;4.40;;;2.00;99.90;;;;;;21127637;28;19912;-78
2021/01/02 16:04:03;;;;;;;;;;;1.90;99.90;;;;;;21066566;28;20518;-77
2021/01/02 16:14:05;;;;;;;8.35;4.78;;;1.90;99.90;;;;;;21067430;28;19920;-77
2021/01/02 16:24:06;;;;;;;8.95;4.78;;;1.90;99.90;;;;;;21028090;28;20411;-77
2021/01/02 16:34:07;;;;;;;13.45;5.68;;;1.90;99.90;;;;;;21047027;28;20047;-76
2021/01/02 16:44:08;;;;;;;;;;;1.80;99.90;;;;;;21046998;28;20726;-77
2021/01/02 16:54:09;;;;;;;10.85;6.13;;;1.80;99.90;;;;;;21090657;28;19938;-77
2021/01/02 17:04:10;;;;;;;;;;;1.80;99.90;;;;;;21147335;28;20154;-80
2021/01/02 17:14:13;;;;;;;17.45;7.72;;;1.80;99.90;;;;;;21096118;28;19957;-80
2021/01/02 17:24:15;;;;;;;12.63;6.78;;;1.80;99.90;;;;;;21101381;28;20043;-78
2021/01/02 17:34:22;;;;;;;13.25;7.03;;;1.80;99.90;;;;;;21101099;28;20545;-76
2021/01/02 17:44:23;;;;;;;11.25;6.03;;;1.80;99.90;;;;;;21106491;28;20042;-79
2021/01/02 17:54:24;;;;;;;;;;;1.80;99.90;;;;;;21143966;28;20023;-78
2021/01/02 18:04:26;;;;;;;10.57;6.07;;;1.70;99.90;;;;;;21113679;28;19946;-79
2021/01/02 18:14:30;;;;;;;12.82;6.53;;;1.80;99.90;;;;;;21134585;28;20038;-78
2021/01/02 18:24:31;;;;;;;11.30;6.43;;;1.70;99.90;;;;;;21118094;28;20142;-79
2021/01/02 18:34:34;;;;;;;10.65;6.03;;;1.70;99.90;;;;;;21125357;28;20138;-80
2021/01/02 18:44:34;;;;;;;14.55;7.05;;;1.70;99.90;;;;;;21118400;28;20036;-77
2021/01/02 18:54:35;;;;;;;;;;;1.70;99.90;;;;;;21118933;28;20035;-76
2021/01/02 19:04:36;;;;;;;15.18;6.28;;;1.70;99.90;;;;;;21090000;28;19939;-77
2021/01/02 19:14:38;;;;;;;;;;;1.70;99.90;;;;;;21087242;28;20032;-78
2021/01/02 19:24:43;;;;;;;14.03;7.77;;;1.70;99.90;;;;;;21029818;28;19951;-79
2021/01/02 19:34:48;;;;;;;17.35;8.15;;;1.70;99.90;;;;;;20982616;28;20086;-79
2021/01/02 19:44:50;;;;;;;17.75;9.38;;;1.70;99.90;;;;;;21016526;28;20084;-79
2021/01/02 19:54:51;;;;;;;19.25;9.43;;;1.70;99.90;;;;;;21156711;28;20063;-78
2021/01/02 20:04:52;;;;;;;;;;;1.60;99.90;;;;;;21104750;28;20330;-80
2021/01/02 20:14:52;;;;;;;19.92;10.75;;;1.60;99.90;;;;;;21136863;28;19918;-78
2021/01/02 20:24:53;;;;;;;20.15;10.32;;;1.50;99.90;;;;;;21125942;28;20032;-77
2021/01/02 20:34:56;;;;;;;;;;;1.50;99.90;;;;;;21118095;28;20035;-78
2021/01/02 20:44:57;;;;;;;15.77;9.80;;;1.50;99.90;;;;;;21113295;28;19916;-77
2021/01/02 20:55:00;;;;;;;23.42;10.40;;;1.40;99.90;;;;;;21088182;28;20027;-78
2021/01/02 21:05:01;;;;;;;21.25;10.13;;;1.40;99.90;;;;;;21097754;28;20036;-77
2021/01/02 21:15:04;;;;;;;24.00;10.15;;;1.40;99.90;;;;;;21097494;28;20024;-77
2021/01/02 21:25:05;;;;;;;24.13;10.82;;;1.40;99.90;;;;;;21112429;28;20051;-77
2021/01/02 21:35:07;;;;;;;20.50;9.48;;;1.30;99.90;;;;;;21081160;28;20066;-77
2021/01/02 21:45:10;;;;;;;18.13;9.18;;;1.30;99.90;;;;;;21061402;28;20039;-77
2021/01/02 21:55:12;;;;;;;23.45;10.20;;;1.50;99.90;;;;;;20979998;28;20056;-78
2021/01/02 22:05:13;;;;;;;22.65;11.25;;;1.50;99.90;;;;;;21040187;28;20510;-77
2021/01/02 22:15:15;;;;;;;25.90;12.05;;;1.50;99.90;;;;;;21063049;28;20066;-80
2021/01/02 22:25:16;;;;;;;34.28;12.38;;;1.50;99.90;;;;;;21063260;28;20031;-76
2021/01/02 22:35:17;;;;;;;25.25;11.60;;;1.40;99.90;;;;;;21065185;28;20028;-78
2021/01/02 22:45:18;;;;;;;26.75;11.45;;;1.40;99.90;;;;;;21064759;28;20032;-76
2021/01/02 22:55:19;;;;;;;25.63;11.65;;;1.30;99.90;;;;;;21072545;28;20028;-78
2021/01/02 23:05:20;;;;;;;27.35;12.13;;;1.30;99.90;;;;;;21063953;28;20097;-77
2021/01/02 23:15:22;;;;;;;24.50;11.10;;;1.20;99.90;;;;;;21127523;28;20026;-77
2021/01/02 23:25:25;;;;;;;26.33;11.57;;;1.20;99.90;;;;;;21127312;28;20483;-79
2021/01/02 23:35:27;;;;;;;24.95;12.32;;;1.20;99.90;;;;;;21132578;28;20490;-78
2021/01/02 23:45:28;;;;;;;23.35;10.57;;;1.10;99.90;;;;;;21128939;28;20035;-77
2021/01/02 23:55:29;;;;;;;;;;;1.10;99.90;;;;;;21101571;28;20092;-77
